Aviation Digital Data Service (ADDS)

Output produced by TAFs form (1050 UTC 19 October 2017)
found at http://www.aviationweather.gov/adds/tafs/
 
KMGM 190953Z AUTO 05004KT 10SM CLR 11/08 A3023 RMK AO2 SLP235 T01110078
KMGM 190520Z 1906/2006 06003KT P6SM SKC